Terminal Aerodrome Forecast
Issued by NWS

Home | Current Version | Previous Version | Graphics & Text | Print | Product List | Glossary On
Versions: 1 2 3 4 5 6 7 8 9 10 11 12 13 14 15 16 17 18 19 20 21 22 23 24 25 26 27 28 29 30 31 32
000
FTUS43 KPAH 220500
TAFOWB
TAF
KOWB 220540Z 2206/2306 09006KT P6SM SKC
     FM221000 11007KT P6SM OVC070
     FM221300 14007KT P6SM BKN020 OVC070
      TEMPO 2214/2218 4SM -SHRA BR BKN013 OVC035
     FM222000 15006KT 4SM -RA BR BKN013 OVC020
     FM230200 15004KT 3SM -RA OVC008=

USA.gov is the U.S. government's official web portal to all federal, state and local government web resources and services.